Time;durP1;ratioP1;P1;durP2;ratioP2;P2;SDS_P1;SDS_P2;PMS_P1;PMS_P2;Temp;Humidity;BMP_temperature;BMP_pressure;BME280_temperature;BME280_humidity;BME280_pressure;Samples;Min_cycle;Max_cycle;Signal;HPM_P1;HPM_P2
2024/03/21 00:02:05;;;;;;;19.38;7.03;;;;;;;8.52;100.00;97617.56;5022914;28;20476;-83
2024/03/21 00:04:31;;;;;;;15.55;7.05;;;;;;;8.44;100.00;97614.47;5008009;28;20398;-81
2024/03/21 00:07:00;;;;;;;14.60;6.63;;;;;;;8.46;100.00;97612.41;5019887;28;20471;-81
2024/03/21 00:09:27;;;;;;;16.27;6.88;;;;;;;8.42;100.00;97617.31;5022267;28;20777;-83
2024/03/21 00:11:53;;;;;;;17.67;7.43;;;;;;;8.38;100.00;97615.41;5022869;28;20940;-79
2024/03/21 00:14:21;;;;;;;13.57;6.95;;;;;;;8.34;100.00;97607.16;5012199;28;20476;-82
2024/03/21 00:16:47;;;;;;;15.75;5.97;;;;;;;8.35;100.00;97602.66;5018828;28;20405;-79
2024/03/21 00:19:13;;;;;;;17.65;6.60;;;;;;;8.32;100.00;97609.22;5019962;28;20874;-81
2024/03/21 00:21:40;;;;;;;12.73;5.50;;;;;;;8.29;100.00;97606.19;5011916;28;20406;-81
2024/03/21 00:24:06;;;;;;;12.60;5.78;;;;;;;8.28;100.00;97613.28;5008218;28;20398;-80
2024/03/21 00:26:33;;;;;;;15.68;6.70;;;;;;;8.30;100.00;97607.78;4999968;28;20407;-82
2024/03/21 00:28:59;;;;;;;17.83;6.75;;;;;;;8.35;100.00;97603.47;5008859;28;20809;-82
2024/03/21 00:31:27;;;;;;;19.65;7.70;;;;;;;8.41;100.00;97609.66;5013704;28;20420;-83
2024/03/21 00:33:53;;;;;;;20.92;7.68;;;;;;;8.45;100.00;97608.16;5019530;28;20772;-81
2024/03/21 00:36:19;;;;;;;21.42;7.93;;;;;;;8.54;100.00;97604.13;5008061;28;20437;-82
2024/03/21 00:38:47;;;;;;;18.92;7.47;;;;;;;8.69;100.00;97604.44;4999927;28;20426;-81
2024/03/21 00:41:13;;;;;;;18.07;7.60;;;;;;;8.75;100.00;97605.34;5000460;28;20414;-81
2024/03/21 00:43:39;;;;;;;26.85;8.27;;;;;;;8.83;100.00;97600.50;5015395;28;20404;-81
2024/03/21 00:46:05;;;;;;;20.47;7.70;;;;;;;8.95;100.00;97597.03;5019700;28;20529;-82
2024/03/21 00:48:33;;;;;;;24.70;7.80;;;;;;;8.99;100.00;97591.03;5019594;28;20396;-81
2024/03/21 00:50:59;;;;;;;18.10;7.30;;;;;;;9.01;100.00;97596.09;5002054;28;20426;-80
2024/03/21 00:53:25;;;;;;;19.60;7.82;;;;;;;9.09;100.00;97593.88;5005532;28;20606;-82
2024/03/21 00:55:51;;;;;;;17.23;7.00;;;;;;;9.17;100.00;97587.41;5019531;28;20428;-81
2024/03/21 00:58:17;;;;;;;16.88;7.20;;;;;;;9.19;100.00;97595.88;5015330;28;20418;-82
2024/03/21 01:00:44;;;;;;;21.67;6.80;;;;;;;9.18;100.00;97591.63;4998563;28;20402;-81
2024/03/21 01:03:10;;;;;;;15.77;6.40;;;;;;;9.17;100.00;97593.47;4999532;28;20952;-81
2024/03/21 01:05:37;;;;;;;21.63;6.65;;;;;;;9.19;100.00;97593.25;5001119;28;20406;-80
2024/03/21 01:08:04;;;;;;;20.88;7.53;;;;;;;9.21;100.00;97586.69;5021678;28;20432;-81
2024/03/21 01:10:30;;;;;;;19.87;7.40;;;;;;;9.29;100.00;97591.59;5005960;28;20409;-81
2024/03/21 01:12:56;;;;;;;17.45;6.45;;;;;;;9.37;100.00;97581.69;5007897;28;20430;-80
2024/03/21 01:15:23;;;;;;;19.30;6.53;;;;;;;9.45;100.00;97584.75;4999663;28;20422;-81
2024/03/21 01:17:51;;;;;;;14.70;6.53;;;;;;;9.48;100.00;97581.59;5017363;28;20401;-82
2024/03/21 01:20:17;;;;;;;14.20;6.43;;;;;;;9.58;100.00;97580.97;5003143;28;20414;-80
2024/03/21 01:22:44;;;;;;;10.85;5.70;;;;;;;9.64;100.00;97582.66;5014438;28;20906;-81
2024/03/21 01:25:11;;;;;;;15.90;5.75;;;;;;;9.61;100.00;97585.78;5021923;28;20397;-81
2024/03/21 01:27:37;;;;;;;14.90;6.07;;;;;;;9.65;100.00;97581.63;5023115;28;20947;-80
2024/03/21 01:30:03;;;;;;;12.57;4.65;;;;;;;9.63;100.00;97584.50;5020147;28;20405;-81
2024/03/21 01:32:29;;;;;;;11.02;5.25;;;;;;;9.62;100.00;97585.53;5018009;28;20432;-82
2024/03/21 01:34:56;;;;;;;15.07;5.50;;;;;;;9.55;100.00;97579.59;5007858;28;20415;-81
2024/03/21 01:37:22;;;;;;;16.38;6.25;;;;;;;9.50;100.00;97576.09;5012226;28;20401;-82
2024/03/21 01:39:49;;;;;;;14.23;5.38;;;;;;;9.49;100.00;97577.13;5021515;28;20761;-81
2024/03/21 01:42:18;;;;;;;11.32;5.38;;;;;;;9.52;100.00;97582.75;5031510;28;20409;-82
2024/03/21 01:45:00;;;;;;;13.30;5.20;;;;;;;9.48;100.00;97583.44;5022763;28;20440;-83
2024/03/21 01:47:27;;;;;;;11.00;5.72;;;;;;;9.54;100.00;97583.31;5012803;28;20886;-82
2024/03/21 01:49:53;;;;;;;14.77;5.53;;;;;;;9.56;100.00;97575.13;5020950;28;20401;-79
2024/03/21 01:52:21;;;;;;;14.30;5.93;;;;;;;9.52;100.00;97576.66;5020669;28;20417;-80
2024/03/21 01:54:48;;;;;;;12.57;5.20;;;;;;;9.57;100.00;97574.09;5019767;28;20393;-81
2024/03/21 01:57:15;;;;;;;12.07;5.45;;;;;;;9.59;100.00;97574.66;5019858;28;20401;-81
2024/03/21 01:59:41;;;;;;;9.80;4.40;;;;;;;9.65;100.00;97571.06;5020537;28;20496;-81
2024/03/21 02:02:07;;;;;;;14.83;5.40;;;;;;;9.60;100.00;97569.13;5002461;28;20509;-81
2024/03/21 02:04:34;;;;;;;11.10;4.72;;;;;;;9.67;100.00;97569.78;5003646;28;20888;-82
2024/03/21 02:07:00;;;;;;;11.17;4.90;;;;;;;9.67;100.00;97575.06;5001763;28;20413;-79
2024/03/21 02:09:27;;;;;;;11.85;4.65;;;;;;;9.67;100.00;97574.25;5000649;28;20887;-80
2024/03/21 02:11:55;;;;;;;10.68;4.68;;;;;;;9.67;100.00;97571.63;5010003;28;20913;-81
2024/03/21 02:14:30;;;;;;;10.23;5.07;;;;;;;9.68;100.00;97571.38;5006748;28;20410;-80
2024/03/21 02:16:57;;;;;;;12.57;5.50;;;;;;;9.78;100.00;97569.91;5009576;28;20400;-81
2024/03/21 02:19:23;;;;;;;10.40;5.07;;;;;;;9.83;100.00;97573.47;5020109;28;20401;-80
2024/03/21 02:24:35;;;;;;;10.20;5.10;;;;;;;9.87;100.00;97577.22;5007651;28;20466;-80
2024/03/21 02:27:01;;;;;;;10.20;5.10;;;;;;;9.90;100.00;97575.94;5017991;28;20401;-80
2024/03/21 02:29:27;;;;;;;8.20;4.67;;;;;;;9.96;100.00;97572.31;5013850;28;20515;-81
2024/03/21 02:31:53;;;;;;;8.93;4.70;;;;;;;9.97;100.00;97577.38;5016947;28;20418;-83
2024/03/21 02:34:19;;;;;;;10.88;4.80;;;;;;;9.97;100.00;97579.22;5007491;28;20400;-78
2024/03/21 02:36:45;;;;;;;9.52;5.18;;;;;;;10.05;100.00;97573.50;5011378;28;20983;-80
2024/03/21 02:39:13;;;;;;;12.43;4.68;;;;;;;10.08;100.00;97583.59;5019829;28;20455;-82
2024/03/21 02:41:39;;;;;;;10.60;4.47;;;;;;;10.04;100.00;97577.19;5019675;28;20508;-79
2024/03/21 02:44:05;;;;;;;6.63;4.13;;;;;;;10.08;100.00;97575.66;5019166;28;20405;-81
2024/03/21 02:46:32;;;;;;;10.82;4.25;;;;;;;10.08;100.00;97576.47;5011392;28;20408;-79
2024/03/21 02:48:59;;;;;;;8.82;4.60;;;;;;;10.07;100.00;97579.38;5000991;28;20493;-82
2024/03/21 02:51:25;;;;;;;9.43;4.53;;;;;;;10.06;100.00;97589.16;4998759;28;20450;-80
2024/03/21 02:53:51;;;;;;;13.55;3.95;;;;;;;10.17;100.00;97578.69;4999729;28;20413;-81
2024/03/21 02:56:19;;;;;;;7.07;4.00;;;;;;;10.11;100.00;97577.84;4999883;28;20410;-80
2024/03/21 02:58:45;;;;;;;6.95;4.10;;;;;;;10.12;100.00;97578.63;5015700;28;20412;-81
2024/03/21 03:01:11;;;;;;;7.60;3.80;;;;;;;10.15;100.00;97581.56;5015808;28;20417;-78
2024/03/21 03:03:37;;;;;;;9.90;3.90;;;;;;;10.08;100.00;97568.53;5014876;28;20400;-77
2024/03/21 03:06:04;;;;;;;10.38;4.10;;;;;;;10.21;100.00;97575.38;5019394;28;20401;-82
2024/03/21 03:08:30;;;;;;;7.47;3.80;;;;;;;10.24;100.00;97569.56;5005155;28;20915;-81
2024/03/21 03:10:57;;;;;;;13.27;4.00;;;;;;;10.17;100.00;97576.88;5000346;28;20831;-79
2024/03/21 03:13:25;;;;;;;8.73;4.10;;;;;;;10.20;100.00;97579.06;5019695;28;20492;-79
2024/03/21 03:15:51;;;;;;;8.30;3.80;;;;;;;10.22;100.00;97576.97;5004574;28;20411;-80
2024/03/21 03:18:17;;;;;;;6.68;3.65;;;;;;;10.23;100.00;97578.56;5002103;28;20414;-80
2024/03/21 03:20:43;;;;;;;7.82;4.07;;;;;;;10.25;100.00;97583.59;5003624;28;20433;-80
2024/03/21 03:23:09;;;;;;;12.18;5.07;;;;;;;10.29;100.00;97588.19;5019118;28;20393;-81
2024/03/21 03:25:40;;;;;;;8.48;4.20;;;;;;;10.21;100.00;97587.78;5019040;28;20405;-81
2024/03/21 03:28:06;;;;;;;10.02;4.25;;;;;;;10.11;100.00;97572.53;5002455;28;20405;-81
2024/03/21 03:30:34;;;;;;;7.15;4.13;;;;;;;10.20;100.00;97584.34;5016898;28;20464;-82
2024/03/21 03:35:33;;;;;;;6.53;3.83;;;;;;;10.22;100.00;97590.19;5018514;28;20425;-82
2024/03/21 03:35:46;;;;;;;6.63;4.05;;;;;;;10.30;100.00;97605.63;5010769;28;20432;-81
2024/03/21 03:38:15;;;;;;;7.30;3.70;;;;;;;10.30;100.00;97604.84;5007301;28;20399;-82
2024/03/21 03:40:42;;;;;;;6.97;3.50;;;;;;;10.30;100.00;97610.91;4999311;28;20891;-81
2024/03/21 03:43:08;;;;;;;5.67;3.37;;;;;;;10.27;100.00;97619.38;5004141;28;20902;-79
2024/03/21 03:45:35;;;;;;;3.90;2.70;;;;;;;10.24;100.00;97611.91;5013998;28;20424;-81
2024/03/21 03:48:02;;;;;;;4.78;2.80;;;;;;;10.21;100.00;97623.00;5015545;28;20400;-81
2024/03/21 03:50:28;;;;;;;3.58;2.55;;;;;;;10.16;100.00;97624.69;5012393;28;20400;-83
2024/03/21 03:52:54;;;;;;;3.35;2.63;;;;;;;10.10;100.00;97629.94;5010116;28;20804;-80
2024/03/21 03:55:20;;;;;;;5.18;3.22;;;;;;;10.05;100.00;97619.28;5000481;28;20410;-82
2024/03/21 03:57:46;;;;;;;4.43;3.15;;;;;;;10.00;100.00;97624.47;5016371;28;20405;-81
2024/03/21 04:00:13;;;;;;;4.32;3.10;;;;;;;9.96;100.00;97620.72;5010404;28;20765;-82
2024/03/21 04:02:44;;;;;;;5.63;3.03;;;;;;;9.92;100.00;97624.88;5011952;28;20399;-82
2024/03/21 04:05:10;;;;;;;4.90;3.40;;;;;;;9.86;100.00;97631.13;4999950;28;20887;-80
2024/03/21 04:07:36;;;;;;;6.50;3.45;;;;;;;9.81;100.00;97620.47;4999824;28;20487;-82
2024/03/21 04:10:05;;;;;;;7.88;4.07;;;;;;;9.76;100.00;97636.28;5018377;28;20424;-80
2024/03/21 04:12:31;;;;;;;6.10;3.58;;;;;;;9.71;100.00;97628.22;5019235;28;20482;-80
2024/03/21 04:14:57;;;;;;;7.63;3.50;;;;;;;9.67;100.00;97635.06;5010866;28;20406;-79
2024/03/21 04:17:24;;;;;;;7.20;3.95;;;;;;;9.61;100.00;97636.81;5006735;28;20394;-81
2024/03/21 04:19:51;;;;;;;6.00;3.60;;;;;;;9.60;100.00;97637.03;5016630;28;20405;-82
2024/03/21 04:22:17;;;;;;;5.70;3.60;;;;;;;9.57;100.00;97643.59;5006992;28;20499;-81
2024/03/21 04:24:46;;;;;;;5.43;3.65;;;;;;;9.53;100.00;97637.19;4999740;28;20409;-82
2024/03/21 04:27:13;;;;;;;6.47;3.50;;;;;;;9.49;100.00;97630.78;5011303;28;20412;-80
2024/03/21 04:29:39;;;;;;;6.57;4.20;;;;;;;9.51;100.00;97641.13;5012742;28;20945;-81
2024/03/21 04:32:05;;;;;;;6.00;3.75;;;;;;;9.45;100.00;97632.31;5009221;28;20423;-81
2024/03/21 04:34:32;;;;;;;5.88;4.00;;;;;;;9.42;100.00;97632.75;5008275;28;20756;-80
2024/03/21 04:36:59;;;;;;;5.85;3.88;;;;;;;9.37;100.00;97630.03;5016870;28;20420;-82
2024/03/21 04:39:25;;;;;;;10.47;3.80;;;;;;;9.33;100.00;97642.91;5006223;28;20488;-81
2024/03/21 04:41:52;;;;;;;5.60;3.67;;;;;;;9.31;100.00;97639.72;4999000;28;20409;-82
2024/03/21 04:44:18;;;;;;;6.45;4.10;;;;;;;9.29;100.00;97638.34;5008825;28;20468;-82
2024/03/21 04:46:44;;;;;;;6.97;3.55;;;;;;;9.30;100.00;97646.03;5010334;28;20493;-82
2024/03/21 04:49:10;;;;;;;5.77;3.40;;;;;;;9.29;100.00;97648.91;5002799;28;20743;-83
2024/03/21 04:51:36;;;;;;;7.55;3.65;;;;;;;9.26;100.00;97639.59;5018745;28;20932;-82
2024/03/21 04:54:03;;;;;;;6.45;3.58;;;;;;;9.27;100.00;97640.41;4999393;28;20685;-80
2024/03/21 04:56:30;;;;;;;6.60;3.80;;;;;;;9.25;100.00;97639.84;5010185;28;20439;-81
2024/03/21 04:58:56;;;;;;;4.83;3.33;;;;;;;9.21;100.00;97642.16;5007131;28;20438;-82
2024/03/21 05:01:22;;;;;;;6.13;3.95;;;;;;;9.18;100.00;97642.63;5006714;28;20466;-82
2024/03/21 05:03:48;;;;;;;5.57;3.22;;;;;;;9.17;100.00;97640.25;5017256;28;20399;-81
2024/03/21 05:06:14;;;;;;;8.77;3.80;;;;;;;9.15;100.00;97644.94;5021929;28;20870;-81
2024/03/21 05:08:40;;;;;;;6.63;3.58;;;;;;;9.16;100.00;97636.00;5010343;28;20398;-82
2024/03/21 05:11:08;;;;;;;5.65;3.67;;;;;;;9.16;100.00;97638.63;5011238;28;20409;-81
2024/03/21 05:13:34;;;;;;;5.13;3.20;;;;;;;9.17;100.00;97641.00;5014259;28;20425;-80
2024/03/21 05:16:00;;;;;;;4.25;2.90;;;;;;;9.17;100.00;97641.00;5012358;28;20478;-80
2024/03/21 05:18:26;;;;;;;6.40;3.43;;;;;;;9.17;100.00;97638.38;5013583;28;20470;-81
2024/03/21 05:20:52;;;;;;;5.32;3.35;;;;;;;9.16;100.00;97636.00;5013860;28;20924;-81
2024/03/21 05:23:19;;;;;;;7.10;3.30;;;;;;;9.18;100.00;97641.81;5017957;28;20489;-84
2024/03/21 05:25:45;;;;;;;7.85;3.60;;;;;;;9.17;100.00;97640.25;5009853;28;20485;-81
2024/03/21 05:28:12;;;;;;;6.25;3.47;;;;;;;9.17;100.00;97632.31;5019939;28;20897;-81
2024/03/21 05:30:39;;;;;;;7.35;3.78;;;;;;;9.17;100.00;97634.97;5005825;28;20437;-81
2024/03/21 05:33:08;;;;;;;7.60;4.32;;;;;;;9.15;100.00;97631.75;5009328;28;20435;-82
2024/03/21 05:35:34;;;;;;;6.85;3.35;;;;;;;9.15;100.00;97637.81;5020687;28;20393;-79
2024/03/21 05:38:00;;;;;;;7.75;3.50;;;;;;;9.19;100.00;97633.66;5013063;28;20397;-81
2024/03/21 05:40:26;;;;;;;8.20;3.72;;;;;;;9.24;100.00;97638.25;5010267;28;20414;-80
2024/03/21 05:42:52;;;;;;;9.40;4.10;;;;;;;9.32;100.00;97643.16;5010472;28;20403;-81
2024/03/21 05:45:20;;;;;;;7.70;3.80;;;;;;;9.43;100.00;97646.78;5005820;28;20413;-78
2024/03/21 05:47:46;;;;;;;7.80;4.07;;;;;;;9.59;100.00;97652.09;5003002;28;20424;-77
2024/03/21 05:50:12;;;;;;;7.50;3.92;;;;;;;9.71;100.00;97649.38;5007916;28;20485;-79
2024/03/21 05:52:39;;;;;;;5.97;3.60;;;;;;;9.82;100.00;97645.88;5012060;28;20417;-79
2024/03/21 05:55:05;;;;;;;9.32;4.45;;;;;;;9.88;100.00;97649.41;5010918;28;20986;-79
2024/03/21 05:57:31;;;;;;;8.07;3.88;;;;;;;9.95;100.00;97640.28;5009036;28;20411;-80
2024/03/21 05:59:58;;;;;;;11.80;4.07;;;;;;;10.07;100.00;97650.78;5008768;28;20743;-80
2024/03/21 06:02:25;;;;;;;7.78;3.10;;;;;;;10.26;100.00;97656.63;5012238;28;20407;-84
2024/03/21 06:04:51;;;;;;;6.15;3.30;;;;;;;10.33;100.00;97657.28;5014564;28;20404;-82
2024/03/21 06:07:17;;;;;;;7.47;3.40;;;;;;;10.29;100.00;97656.16;5008684;28;20582;-79
2024/03/21 06:09:43;;;;;;;4.85;2.92;;;;;;;10.47;100.00;97655.88;5008375;28;20462;-78
2024/03/21 06:12:10;;;;;;;4.78;2.95;;;;;;;10.47;100.00;97659.34;5001716;28;20861;-76
2024/03/21 06:14:36;;;;;;;5.50;3.08;;;;;;;10.58;100.00;97655.00;4997618;28;20828;-78
2024/03/21 06:17:02;;;;;;;6.85;2.90;;;;;;;10.67;100.00;97660.69;5001993;28;20407;-79
2024/03/21 06:19:30;;;;;;;5.78;2.90;;;;;;;10.66;100.00;97653.78;5008127;28;20421;-80
2024/03/21 06:21:58;;;;;;;7.57;3.25;;;;;;;10.76;100.00;97657.34;5015391;28;20413;-81
2024/03/21 06:24:24;;;;;;;4.60;2.90;;;;;;;10.91;100.00;97659.38;5014073;28;20400;-82
2024/03/21 06:26:50;;;;;;;6.13;3.03;;;;;;;11.05;100.00;97673.09;5011617;28;20430;-79
2024/03/21 06:29:16;;;;;;;9.23;3.10;;;;;;;11.19;100.00;97682.25;5009320;28;20405;-80
2024/03/21 06:31:42;;;;;;;6.18;2.83;;;;;;;11.29;100.00;97694.81;5002498;28;20419;-78
2024/03/21 06:34:09;;;;;;;5.03;3.00;;;;;;;11.21;100.00;97688.09;4997463;28;20511;-78
2024/03/21 06:36:36;;;;;;;5.85;3.33;;;;;;;11.38;100.00;97695.97;5003098;28;20409;-78
2024/03/21 06:39:04;;;;;;;6.30;2.83;;;;;;;11.21;100.00;97680.94;5000224;28;20442;-78
2024/03/21 06:41:30;;;;;;;6.65;3.33;;;;;;;11.30;100.00;97681.31;5010412;28;20407;-78
2024/03/21 06:43:56;;;;;;;4.13;2.42;;;;;;;11.51;100.00;97683.13;5008440;28;20405;-76
2024/03/21 06:46:23;;;;;;;5.38;2.75;;;;;;;11.56;100.00;97685.84;5016136;28;20400;-80
2024/03/21 06:48:49;;;;;;;4.43;2.60;;;;;;;11.53;100.00;97693.50;5012462;28;20401;-79
2024/03/21 06:51:15;;;;;;;4.78;2.80;;;;;;;11.70;100.00;97696.06;5011383;28;20406;-80
2024/03/21 06:53:43;;;;;;;8.15;3.15;;;;;;;11.78;100.00;97696.44;5029666;28;20380;-81
2024/03/21 06:56:09;;;;;;;4.53;2.83;;;;;;;11.78;100.00;97703.59;5021967;28;20414;-79
2024/03/21 06:58:36;;;;;;;4.80;2.75;;;;;;;11.79;100.00;97710.50;5005186;28;20410;-80
2024/03/21 07:01:02;;;;;;;6.78;2.85;;;;;;;11.78;100.00;97706.25;5008218;28;20765;-79
2024/03/21 07:03:28;;;;;;;5.32;2.80;;;;;;;11.85;100.00;97717.44;5017098;28;20472;-81
2024/03/21 07:05:56;;;;;;;3.85;2.75;;;;;;;11.82;100.00;97718.75;5014436;28;20404;-80
2024/03/21 07:08:22;;;;;;;5.33;3.03;;;;;;;11.86;100.00;97724.34;5010881;28;20395;-78
2024/03/21 07:10:50;;;;;;;5.57;3.00;;;;;;;11.79;100.00;97731.72;5010535;28;20410;-80
2024/03/21 07:13:19;;;;;;;6.30;3.13;;;;;;;11.77;100.00;97731.16;5024430;28;20465;-79
2024/03/21 07:15:46;;;;;;;5.30;3.00;;;;;;;11.80;100.00;97733.31;5021920;28;20479;-80
2024/03/21 07:18:14;;;;;;;3.50;2.60;;;;;;;11.82;100.00;97731.19;5022300;28;20750;-78
2024/03/21 07:20:40;;;;;;;5.93;3.20;;;;;;;11.76;100.00;97737.50;5021730;28;20397;-79
2024/03/21 07:23:06;;;;;;;3.23;2.27;;;;;;;11.78;100.00;97738.88;5015070;28;20498;-80
2024/03/21 07:25:35;;;;;;;5.07;3.33;;;;;;;11.82;100.00;97737.31;5016758;28;20403;-81
2024/03/21 07:28:03;;;;;;;6.25;3.22;;;;;;;11.79;100.00;97735.16;5012215;28;20467;-81
2024/03/21 07:30:29;;;;;;;6.47;3.20;;;;;;;11.93;100.00;97749.63;5021047;28;20431;-79
2024/03/21 07:32:55;;;;;;;5.47;2.90;;;;;;;11.99;100.00;97753.13;5018455;28;20422;-79
2024/03/21 07:35:22;;;;;;;3.70;2.28;;;;;;;12.06;100.00;97751.06;5020562;28;20482;-80
2024/03/21 07:37:50;;;;;;;2.60;2.10;;;;;;;12.15;100.00;97754.88;5015963;28;20409;-79
2024/03/21 07:40:16;;;;;;;3.38;2.15;;;;;;;12.25;100.00;97757.63;5028090;28;20454;-80
2024/03/21 07:42:42;;;;;;;5.47;2.75;;;;;;;12.36;100.00;97763.81;5026827;28;20401;-79
2024/03/21 07:45:11;;;;;;;5.00;2.55;;;;;;;12.46;100.00;97768.41;5026054;28;20397;-78
2024/03/21 07:47:38;;;;;;;4.50;2.63;;;;;;;12.60;100.00;97773.03;5007667;28;20398;-79
2024/03/21 07:50:04;;;;;;;8.27;3.33;;;;;;;12.62;100.00;97767.50;5013597;28;20406;-80
2024/03/21 07:52:31;;;;;;;10.25;3.28;;;;;;;12.68;100.00;97769.13;5017780;28;20509;-79
2024/03/21 07:54:58;;;;;;;5.13;2.80;;;;;;;12.68;100.00;97767.25;5010281;28;20411;-80
2024/03/21 07:57:24;;;;;;;4.10;2.70;;;;;;;12.80;100.00;97765.22;5015950;28;20406;-81
2024/03/21 07:59:50;;;;;;;5.30;3.00;;;;;;;12.93;100.00;97771.94;5023181;28;20403;-80
2024/03/21 08:02:18;;;;;;;5.72;3.00;;;;;;;12.99;100.00;97759.50;5009464;28;20428;-81
2024/03/21 08:04:44;;;;;;;5.47;3.30;;;;;;;13.01;100.00;97768.00;5019979;28;20412;-80
2024/03/21 08:07:10;;;;;;;5.07;2.85;;;;;;;13.01;100.00;97768.00;5023994;28;20899;-80
2024/03/21 08:09:36;;;;;;;4.82;2.72;;;;;;;13.09;100.00;97773.63;5022120;28;20440;-81
2024/03/21 08:12:03;;;;;;;4.80;2.70;;;;;;;13.16;100.00;97774.22;5018951;28;20466;-80
2024/03/21 08:14:29;;;;;;;6.85;3.50;;;;;;;13.28;100.00;97760.75;5021056;28;20403;-81
2024/03/21 08:16:55;;;;;;;4.55;2.75;;;;;;;13.18;100.00;97766.00;5016460;28;20485;-81
2024/03/21 08:19:22;;;;;;;5.50;3.30;;;;;;;13.29;100.00;97762.34;5018758;28;20399;-80
2024/03/21 08:21:48;;;;;;;6.20;2.90;;;;;;;13.37;100.00;97779.66;5017588;28;20427;-81
2024/03/21 08:24:15;;;;;;;8.02;2.90;;;;;;;13.46;100.00;97783.41;5020429;28;20408;-81
2024/03/21 08:26:41;;;;;;;12.68;3.17;;;;;;;13.40;100.00;97774.63;5023136;28;20412;-81
2024/03/21 08:29:07;;;;;;;6.40;3.00;;;;;;;13.52;100.00;97780.53;5027937;28;20418;-81
2024/03/21 08:31:33;;;;;;;5.10;2.75;;;;;;;13.48;100.00;97776.78;5020230;28;20402;-82
2024/03/21 08:33:59;;;;;;;5.22;2.88;;;;;;;13.51;100.00;97789.56;5020059;28;20405;-81
2024/03/21 08:36:27;;;;;;;4.72;3.33;;;;;;;13.42;100.00;97788.47;5022597;28;20412;-80
2024/03/21 08:38:53;;;;;;;5.22;3.13;;;;;;;13.51;100.00;97794.88;5018225;28;20457;-81
2024/03/21 08:41:19;;;;;;;4.55;2.28;;;;;;;13.61;100.00;97804.75;5013736;28;20402;-80
2024/03/21 08:43:48;;;;;;;5.83;3.30;;;;;;;13.63;100.00;97809.81;5014770;28;20681;-81
2024/03/21 08:46:15;;;;;;;6.88;3.55;;;;;;;13.68;100.00;97823.16;5017318;28;20405;-81
2024/03/21 08:48:41;;;;;;;4.72;3.05;;;;;;;13.73;100.00;97815.19;5025538;28;20404;-80
2024/03/21 08:51:07;;;;;;;5.87;3.53;;;;;;;13.70;100.00;97813.84;5018152;28;20476;-81
2024/03/21 08:53:37;;;;;;;5.93;3.60;;;;;;;13.63;100.00;97799.97;5026709;28;20845;-82
2024/03/21 08:56:04;;;;;;;5.75;3.53;;;;;;;13.71;100.00;97817.31;5024203;28;20401;-80
2024/03/21 08:58:30;;;;;;;5.40;3.40;;;;;;;13.70;100.00;97813.03;5018079;28;20488;-80
2024/03/21 09:00:56;;;;;;;9.52;3.58;;;;;;;13.91;100.00;97820.03;5014834;28;20803;-81
2024/03/21 09:03:23;;;;;;;4.93;2.97;;;;;;;13.86;100.00;97815.50;5025181;28;20408;-81
2024/03/21 09:05:49;;;;;;;4.90;3.08;;;;;;;13.87;100.00;97838.38;5025935;28;20877;-80
2024/03/21 09:08:15;;;;;;;6.10;3.33;;;;;;;13.92;100.00;97821.63;5011897;28;20896;-81
2024/03/21 09:10:42;;;;;;;5.60;3.33;;;;;;;14.24;100.00;97834.75;5023941;28;20404;-81
2024/03/21 09:13:09;;;;;;;9.48;4.20;;;;;;;14.67;100.00;97818.31;5011967;28;20423;-82
2024/03/21 09:15:35;;;;;;;7.95;3.70;;;;;;;15.07;100.00;97814.03;5019990;28;20802;-82
2024/03/21 09:18:01;;;;;;;6.82;3.67;;;;;;;15.32;100.00;97807.88;5017494;28;20402;-82
2024/03/21 09:20:27;;;;;;;9.00;3.70;;;;;;;15.57;100.00;97809.66;5013293;28;20396;-81
2024/03/21 09:22:54;;;;;;;5.63;2.90;;;;;;;15.42;100.00;97810.47;5012174;28;20406;-82
2024/03/21 09:25:20;;;;;;;5.50;2.78;;;;;;;15.43;100.00;97812.88;5017611;28;20407;-82
2024/03/21 09:27:47;;;;;;;7.40;3.60;;;;;;;15.36;100.00;97808.91;5021628;28;20420;-83
2024/03/21 09:30:14;;;;;;;7.28;3.95;;;;;;;15.46;100.00;97814.22;5019276;28;20412;-81
2024/03/21 09:32:40;;;;;;;7.50;3.75;;;;;;;15.66;100.00;97798.16;5009972;28;20465;-80
2024/03/21 09:35:09;;;;;;;7.55;3.92;;;;;;;15.94;100.00;97803.94;5019964;28;20412;-81
2024/03/21 09:37:35;;;;;;;5.70;2.92;;;;;;;16.29;100.00;97803.72;5015571;28;20438;-82
2024/03/21 09:40:02;;;;;;;4.88;2.88;;;;;;;16.53;100.00;97807.28;5024718;28;20404;-80
2024/03/21 09:42:29;;;;;;;4.93;2.77;;;;;;;16.50;100.00;97810.50;5020789;28;20449;-82
2024/03/21 09:44:57;;;;;;;6.28;3.55;;;;;;;16.39;100.00;97821.56;5012940;28;20446;-79
2024/03/21 09:47:25;;;;;;;7.18;3.28;;;;;;;16.20;100.00;97824.88;5018507;28;20462;-82
2024/03/21 09:49:51;;;;;;;7.17;3.33;;;;;;;16.05;100.00;97834.84;5017864;28;20462;-82
2024/03/21 09:52:18;;;;;;;6.33;3.60;;;;;;;15.90;100.00;97838.38;5023955;28;20584;-80
2024/03/21 09:54:45;;;;;;;5.63;3.60;;;;;;;15.81;100.00;97846.16;5016751;28;20399;-82
2024/03/21 09:57:13;;;;;;;5.40;3.03;;;;;;;15.94;100.00;97850.09;5006603;28;20457;-81
2024/03/21 09:59:39;;;;;;;5.55;3.13;;;;;;;16.07;100.00;97849.53;5017127;28;20422;-81
2024/03/21 10:02:12;;;;;;;7.82;4.00;;;;;;;15.90;100.00;97854.41;5014529;28;20421;-81
2024/03/21 10:04:42;;;;;;;8.85;3.33;;;;;;;16.02;100.00;97862.06;5015771;28;20397;-82
2024/03/21 10:07:17;;;;;;;5.63;3.15;;;;;;;16.00;100.00;97861.56;5022992;28;20399;-82
2024/03/21 10:09:45;;;;;;;4.57;3.08;;;;;;;15.96;100.00;97858.63;5022682;28;20397;-80
2024/03/21 10:12:11;;;;;;;6.35;3.17;;;;;;;15.93;100.00;97847.72;5022359;28;20421;-83
2024/03/21 10:14:37;;;;;;;5.10;3.42;;;;;;;15.99;100.00;97859.97;5019760;28;20769;-80
2024/03/21 10:17:04;;;;;;;9.27;3.92;;;;;;;16.41;100.00;97848.78;5015333;28;20893;-79
2024/03/21 10:19:31;;;;;;;10.40;4.97;;;;;;;16.71;100.00;97847.81;5020829;28;20739;-81
2024/03/21 10:21:58;;;;;;;6.18;3.40;;;;;;;17.07;100.00;97850.97;5019453;28;20409;-81
2024/03/21 10:24:24;;;;;;;9.88;5.22;;;;;;;17.80;100.00;97838.22;5025703;28;20392;-80
2024/03/21 10:26:50;;;;;;;11.60;5.43;;;;;;;17.74;100.00;97845.50;5024190;28;20401;-80
2024/03/21 10:29:17;;;;;;;9.17;5.10;;;;;;;17.72;100.00;97831.63;5024496;28;20424;-80
2024/03/21 10:31:44;;;;;;;9.85;5.22;;;;;;;17.76;100.00;97842.53;5031585;28;20388;-81
2024/03/21 10:34:11;;;;;;;9.65;4.82;;;;;;;17.57;100.00;97836.31;5024238;28;20383;-82
2024/03/21 10:36:39;;;;;;;8.18;4.05;;;;;;;17.52;100.00;97847.06;5021703;28;20473;-80
2024/03/21 10:39:09;;;;;;;12.02;5.57;;;;;;;17.62;100.00;97845.09;5017601;28;20427;-81
2024/03/21 10:41:39;;;;;;;12.75;6.80;;;;;;;17.72;100.00;97844.19;5017027;28;20425;-80
2024/03/21 10:44:11;;;;;;;14.10;6.55;;;;;;;17.56;100.00;97842.75;5017894;28;20654;-81
2024/03/21 10:46:38;;;;;;;17.73;7.57;;;;;;;17.16;100.00;97851.97;5023532;28;20425;-80
2024/03/21 10:49:05;;;;;;;13.70;7.32;;;;;;;16.89;100.00;97845.25;5021773;28;20434;-81
2024/03/21 10:51:39;;;;;;;13.70;7.05;;;;;;;17.28;100.00;97850.53;5020663;28;20534;-80
2024/03/21 10:54:12;;;;;;;11.67;6.30;;;;;;;17.31;100.00;97863.34;5024683;28;20416;-79
2024/03/21 10:56:39;;;;;;;11.93;6.25;;;;;;;17.17;100.00;97858.91;5011465;28;20406;-80
2024/03/21 10:59:06;;;;;;;10.52;5.50;;;;;;;17.32;100.00;97864.13;5013703;28;20392;-81
2024/03/21 11:01:34;;;;;;;7.80;4.30;;;;;;;18.05;100.00;97863.88;5021492;28;20400;-81
2024/03/21 11:04:04;;;;;;;12.77;5.65;;;;;;;18.80;100.00;97862.03;5017862;28;20421;-80
2024/03/21 11:06:32;;;;;;;6.90;4.50;;;;;;;18.88;100.00;97861.38;5020737;28;20697;-81
2024/03/21 11:08:59;;;;;;;7.47;4.22;;;;;;;18.63;100.00;97864.47;5008467;28;20433;-80
2024/03/21 11:11:29;;;;;;;8.88;4.40;;;;;;;18.82;100.00;97859.88;5014216;28;20470;-82
2024/03/21 11:14:00;;;;;;;5.35;3.33;;;;;;;19.80;100.00;97862.47;5010969;28;20415;-81
2024/03/21 11:16:27;;;;;;;5.15;3.38;;;;;;;21.00;100.00;97863.59;5017885;28;20434;-79
2024/03/21 11:18:55;;;;;;;6.57;3.35;;;;;;;22.08;100.00;97857.03;5018547;28;20401;-79
2024/03/21 11:21:22;;;;;;;6.10;2.80;;;;;;;22.43;100.00;97855.16;5003617;28;20399;-81
2024/03/21 11:23:48;;;;;;;4.28;3.20;;;;;;;22.06;100.00;97859.22;5022325;28;20408;-81
2024/03/21 11:26:16;;;;;;;7.90;3.70;;;;;;;22.17;100.00;97858.63;5024183;28;20393;-82
2024/03/21 11:28:45;;;;;;;6.33;3.43;;;;;;;22.48;100.00;97853.09;5024301;28;20770;-83